sensor_id;sensor_type;location;lat;lon;timestamp;P1;durP1;ratioP1;P2;durP2;ratioP2
46607;SDS011;32330;51.936;7.184;2022-12-16T03:16:26;54.17;;;31.80;;
46607;SDS011;32330;51.936;7.184;2022-12-16T03:18:57;56.05;;;31.98;;
46607;SDS011;32330;51.936;7.184;2022-12-16T03:21:28;58.53;;;34.45;;
46607;SDS011;32330;51.936;7.184;2022-12-16T03:23:58;53.78;;;30.42;;
46607;SDS011;32330;51.936;7.184;2022-12-16T03:26:27;51.95;;;32.65;;
46607;SDS011;32330;51.936;7.184;2022-12-16T03:28:59;58.53;;;33.78;;
46607;SDS011;32330;51.936;7.184;2022-12-16T03:31:34;49.75;;;30.77;;
46607;SDS011;32330;51.936;7.184;2022-12-16T03:34:06;48.83;;;30.38;;
46607;SDS011;32330;51.936;7.184;2022-12-16T03:36:37;50.75;;;33.50;;
46607;SDS011;32330;51.936;7.184;2022-12-16T03:39:06;58.38;;;33.10;;
46607;SDS011;32330;51.936;7.184;2022-12-16T03:41:35;53.42;;;32.53;;
46607;SDS011;32330;51.936;7.184;2022-12-16T03:44:03;54.28;;;31.02;;
46607;SDS011;32330;51.936;7.184;2022-12-16T03:46:30;51.53;;;32.40;;
46607;SDS011;32330;51.936;7.184;2022-12-16T03:48:59;54.08;;;32.45;;
46607;SDS011;32330;51.936;7.184;2022-12-16T03:51:26;52.67;;;33.03;;
46607;SDS011;32330;51.936;7.184;2022-12-16T03:53:53;52.83;;;31.52;;
46607;SDS011;32330;51.936;7.184;2022-12-16T03:56:20;53.83;;;31.50;;
46607;SDS011;32330;51.936;7.184;2022-12-16T03:58:47;47.92;;;30.55;;
46607;SDS011;32330;51.936;7.184;2022-12-16T04:01:14;50.67;;;32.60;;
46607;SDS011;32330;51.936;7.184;2022-12-16T04:03:42;52.28;;;31.13;;
46607;SDS011;32330;51.936;7.184;2022-12-16T04:06:09;52.95;;;31.17;;
46607;SDS011;32330;51.936;7.184;2022-12-16T04:08:36;52.72;;;31.10;;
46607;SDS011;32330;51.936;7.184;2022-12-16T04:11:03;46.67;;;28.85;;
46607;SDS011;32330;51.936;7.184;2022-12-16T04:13:48;51.40;;;30.55;;
46607;SDS011;32330;51.936;7.184;2022-12-16T04:16:32;50.10;;;28.23;;
46607;SDS011;32330;51.936;7.184;2022-12-16T04:19:20;49.08;;;28.77;;
46607;SDS011;32330;51.936;7.184;2022-12-16T04:22:10;48.47;;;28.92;;
46607;SDS011;32330;51.936;7.184;2022-12-16T04:24:57;54.65;;;30.30;;
46607;SDS011;32330;51.936;7.184;2022-12-16T04:27:27;50.42;;;31.90;;
46607;SDS011;32330;51.936;7.184;2022-12-16T04:29:54;48.08;;;29.50;;
46607;SDS011;32330;51.936;7.184;2022-12-16T04:32:38;54.22;;;31.33;;
46607;SDS011;32330;51.936;7.184;2022-12-16T04:35:24;52.70;;;30.15;;
46607;SDS011;32330;51.936;7.184;2022-12-16T04:38:08;46.58;;;29.02;;
46607;SDS011;32330;51.936;7.184;2022-12-16T04:40:53;53.45;;;29.88;;
46607;SDS011;32330;51.936;7.184;2022-12-16T04:43:38;47.67;;;29.58;;
46607;SDS011;32330;51.936;7.184;2022-12-16T04:46:22;49.95;;;29.00;;
46607;SDS011;32330;51.936;7.184;2022-12-16T04:49:07;49.90;;;28.92;;
46607;SDS011;32330;51.936;7.184;2022-12-16T04:51:53;48.35;;;28.65;;
46607;SDS011;32330;51.936;7.184;2022-12-16T04:54:37;50.10;;;29.17;;
46607;SDS011;32330;51.936;7.184;2022-12-16T04:57:21;51.20;;;29.88;;
46607;SDS011;32330;51.936;7.184;2022-12-16T05:00:06;49.35;;;29.55;;
46607;SDS011;32330;51.936;7.184;2022-12-16T05:02:52;48.47;;;28.40;;
46607;SDS011;32330;51.936;7.184;2022-12-16T05:05:36;50.65;;;29.65;;
46607;SDS011;32330;51.936;7.184;2022-12-16T05:08:23;45.53;;;27.60;;
46607;SDS011;32330;51.936;7.184;2022-12-16T05:11:22;48.33;;;29.98;;
46607;SDS011;32330;51.936;7.184;2022-12-16T05:14:06;51.15;;;32.47;;
46607;SDS011;32330;51.936;7.184;2022-12-16T05:16:50;51.97;;;30.90;;
46607;SDS011;32330;51.936;7.184;2022-12-16T05:19:35;47.42;;;27.95;;
46607;SDS011;32330;51.936;7.184;2022-12-16T05:22:19;44.75;;;27.45;;
46607;SDS011;32330;51.936;7.184;2022-12-16T05:25:06;49.30;;;29.52;;
46607;SDS011;32330;51.936;7.184;2022-12-16T05:27:52;46.58;;;27.85;;
46607;SDS011;32330;51.936;7.184;2022-12-16T05:30:36;51.20;;;29.58;;
46607;SDS011;32330;51.936;7.184;2022-12-16T05:33:21;52.80;;;31.02;;
46607;SDS011;32330;51.936;7.184;2022-12-16T05:36:06;51.05;;;29.95;;
46607;SDS011;32330;51.936;7.184;2022-12-16T05:38:51;48.03;;;27.90;;
46607;SDS011;32330;51.936;7.184;2022-12-16T05:41:37;52.42;;;28.67;;
46607;SDS011;32330;51.936;7.184;2022-12-16T05:44:30;54.17;;;29.65;;
46607;SDS011;32330;51.936;7.184;2022-12-16T05:47:14;45.60;;;26.95;;
46607;SDS011;32330;51.936;7.184;2022-12-16T05:49:59;51.22;;;28.02;;
46607;SDS011;32330;51.936;7.184;2022-12-16T05:52:47;49.35;;;28.77;;
46607;SDS011;32330;51.936;7.184;2022-12-16T05:55:32;50.03;;;29.35;;
46607;SDS011;32330;51.936;7.184;2022-12-16T05:58:18;49.80;;;29.33;;
46607;SDS011;32330;51.936;7.184;2022-12-16T06:01:02;49.17;;;28.63;;
46607;SDS011;32330;51.936;7.184;2022-12-16T06:03:47;53.03;;;28.60;;
46607;SDS011;32330;51.936;7.184;2022-12-16T06:06:32;46.10;;;28.20;;
46607;SDS011;32330;51.936;7.184;2022-12-16T06:09:21;50.47;;;28.33;;
46607;SDS011;32330;51.936;7.184;2022-12-16T06:12:06;52.85;;;30.85;;
46607;SDS011;32330;51.936;7.184;2022-12-16T06:14:52;51.20;;;30.63;;
46607;SDS011;32330;51.936;7.184;2022-12-16T06:17:40;48.42;;;28.50;;
46607;SDS011;32330;51.936;7.184;2022-12-16T06:20:25;53.00;;;29.83;;
46607;SDS011;32330;51.936;7.184;2022-12-16T06:23:10;50.00;;;28.95;;
46607;SDS011;32330;51.936;7.184;2022-12-16T06:25:54;48.17;;;29.23;;
46607;SDS011;32330;51.936;7.184;2022-12-16T06:28:40;52.00;;;31.95;;
46607;SDS011;32330;51.936;7.184;2022-12-16T06:31:29;51.25;;;29.88;;
46607;SDS011;32330;51.936;7.184;2022-12-16T06:34:13;47.88;;;29.75;;
46607;SDS011;32330;51.936;7.184;2022-12-16T06:36:57;52.92;;;31.80;;
46607;SDS011;32330;51.936;7.184;2022-12-16T06:39:42;51.88;;;30.73;;
46607;SDS011;32330;51.936;7.184;2022-12-16T06:42:26;53.60;;;30.17;;
46607;SDS011;32330;51.936;7.184;2022-12-16T06:45:11;51.85;;;29.77;;
46607;SDS011;32330;51.936;7.184;2022-12-16T06:47:57;48.50;;;29.48;;
46607;SDS011;32330;51.936;7.184;2022-12-16T06:50:41;54.80;;;30.77;;
46607;SDS011;32330;51.936;7.184;2022-12-16T06:53:26;51.72;;;31.95;;
46607;SDS011;32330;51.936;7.184;2022-12-16T06:56:10;56.75;;;32.05;;
46607;SDS011;32330;51.936;7.184;2022-12-16T06:58:55;55.03;;;33.83;;
46607;SDS011;32330;51.936;7.184;2022-12-16T07:01:40;74.28;;;38.88;;
46607;SDS011;32330;51.936;7.184;2022-12-16T07:04:25;65.88;;;35.47;;
46607;SDS011;32330;51.936;7.184;2022-12-16T07:07:10;70.32;;;36.30;;
46607;SDS011;32330;51.936;7.184;2022-12-16T07:09:54;72.03;;;36.38;;
46607;SDS011;32330;51.936;7.184;2022-12-16T07:12:38;90.25;;;36.20;;
46607;SDS011;32330;51.936;7.184;2022-12-16T07:15:34;86.13;;;35.13;;
46607;SDS011;32330;51.936;7.184;2022-12-16T07:18:19;79.57;;;37.03;;
46607;SDS011;32330;51.936;7.184;2022-12-16T07:21:05;93.45;;;37.58;;
46607;SDS011;32330;51.936;7.184;2022-12-16T07:23:49;100.28;;;40.20;;
46607;SDS011;32330;51.936;7.184;2022-12-16T07:26:34;96.53;;;46.25;;
46607;SDS011;32330;51.936;7.184;2022-12-16T07:29:18;110.63;;;50.33;;
46607;SDS011;32330;51.936;7.184;2022-12-16T07:32:03;106.65;;;52.22;;
46607;SDS011;32330;51.936;7.184;2022-12-16T07:34:48;110.35;;;52.13;;
46607;SDS011;32330;51.936;7.184;2022-12-16T07:37:33;104.63;;;46.65;;
46607;SDS011;32330;51.936;7.184;2022-12-16T07:40:19;108.18;;;44.67;;
46607;SDS011;32330;51.936;7.184;2022-12-16T07:43:04;94.15;;;44.65;;
46607;SDS011;32330;51.936;7.184;2022-12-16T07:45:48;93.22;;;45.63;;
46607;SDS011;32330;51.936;7.184;2022-12-16T07:48:32;100.80;;;42.50;;
46607;SDS011;32330;51.936;7.184;2022-12-16T07:51:17;94.53;;;44.47;;
46607;SDS011;32330;51.936;7.184;2022-12-16T07:54:03;98.80;;;43.50;;
46607;SDS011;32330;51.936;7.184;2022-12-16T07:56:47;103.15;;;43.60;;
46607;SDS011;32330;51.936;7.184;2022-12-16T07:59:32;103.53;;;43.88;;
46607;SDS011;32330;51.936;7.184;2022-12-16T08:02:17;99.75;;;43.35;;
46607;SDS011;32330;51.936;7.184;2022-12-16T08:05:01;96.15;;;43.47;;
46607;SDS011;32330;51.936;7.184;2022-12-16T08:07:45;100.47;;;42.83;;
46607;SDS011;32330;51.936;7.184;2022-12-16T08:10:31;94.85;;;42.80;;
46607;SDS011;32330;51.936;7.184;2022-12-16T08:13:16;92.05;;;43.17;;
46607;SDS011;32330;51.936;7.184;2022-12-16T08:16:00;113.20;;;44.85;;
46607;SDS011;32330;51.936;7.184;2022-12-16T08:18:41;105.30;;;45.97;;
46607;SDS011;32330;51.936;7.184;2022-12-16T08:21:26;100.32;;;46.88;;
46607;SDS011;32330;51.936;7.184;2022-12-16T08:24:11;103.05;;;48.00;;
46607;SDS011;32330;51.936;7.184;2022-12-16T08:26:57;93.93;;;43.08;;
46607;SDS011;32330;51.936;7.184;2022-12-16T08:29:41;90.55;;;46.63;;
46607;SDS011;32330;51.936;7.184;2022-12-16T08:32:25;90.68;;;43.97;;
46607;SDS011;32330;51.936;7.184;2022-12-16T08:35:10;89.28;;;42.13;;
46607;SDS011;32330;51.936;7.184;2022-12-16T08:37:54;86.88;;;43.70;;
46607;SDS011;32330;51.936;7.184;2022-12-16T08:40:39;81.60;;;42.17;;
46607;SDS011;32330;51.936;7.184;2022-12-16T08:43:26;93.88;;;43.20;;
46607;SDS011;32330;51.936;7.184;2022-12-16T08:46:14;83.63;;;43.28;;
46607;SDS011;32330;51.936;7.184;2022-12-16T08:48:58;79.25;;;39.30;;
46607;SDS011;32330;51.936;7.184;2022-12-16T08:51:42;75.35;;;38.92;;
46607;SDS011;32330;51.936;7.184;2022-12-16T08:54:27;85.43;;;43.63;;
46607;SDS011;32330;51.936;7.184;2022-12-16T08:57:12;85.38;;;42.40;;
46607;SDS011;32330;51.936;7.184;2022-12-16T08:59:56;74.97;;;40.20;;
46607;SDS011;32330;51.936;7.184;2022-12-16T09:02:41;81.03;;;40.92;;
46607;SDS011;32330;51.936;7.184;2022-12-16T09:05:26;94.10;;;46.13;;
46607;SDS011;32330;51.936;7.184;2022-12-16T09:08:10;84.82;;;41.83;;
46607;SDS011;32330;51.936;7.184;2022-12-16T09:10:58;92.38;;;46.17;;
46607;SDS011;32330;51.936;7.184;2022-12-16T09:13:43;91.80;;;44.42;;
46607;SDS011;32330;51.936;7.184;2022-12-16T09:16:29;111.65;;;47.60;;
46607;SDS011;32330;51.936;7.184;2022-12-16T09:19:13;106.25;;;46.53;;
46607;SDS011;32330;51.936;7.184;2022-12-16T09:21:58;110.63;;;49.63;;
46607;SDS011;32330;51.936;7.184;2022-12-16T09:24:42;108.75;;;50.00;;
46607;SDS011;32330;51.936;7.184;2022-12-16T09:27:27;113.30;;;52.70;;
46607;SDS011;32330;51.936;7.184;2022-12-16T09:30:11;120.88;;;54.30;;
46607;SDS011;32330;51.936;7.184;2022-12-16T09:32:54;120.27;;;49.97;;
46607;SDS011;32330;51.936;7.184;2022-12-16T09:35:38;112.72;;;50.10;;
46607;SDS011;32330;51.936;7.184;2022-12-16T09:38:23;119.13;;;54.67;;
46607;SDS011;32330;51.936;7.184;2022-12-16T09:41:16;121.72;;;55.63;;
46607;SDS011;32330;51.936;7.184;2022-12-16T09:44:10;120.45;;;54.35;;
46607;SDS011;32330;51.936;7.184;2022-12-16T09:47:03;115.18;;;54.30;;
46607;SDS011;32330;51.936;7.184;2022-12-16T09:49:55;110.35;;;52.53;;
46607;SDS011;32330;51.936;7.184;2022-12-16T09:52:41;117.38;;;51.25;;
46607;SDS011;32330;51.936;7.184;2022-12-16T09:55:30;103.47;;;48.40;;
46607;SDS011;32330;51.936;7.184;2022-12-16T09:58:18;113.95;;;48.15;;
46607;SDS011;32330;51.936;7.184;2022-12-16T10:01:05;106.05;;;46.70;;
46607;SDS011;32330;51.936;7.184;2022-12-16T10:03:54;106.13;;;50.35;;
46607;SDS011;32330;51.936;7.184;2022-12-16T10:06:41;108.03;;;48.92;;
46607;SDS011;32330;51.936;7.184;2022-12-16T10:09:28;111.25;;;48.20;;
46607;SDS011;32330;51.936;7.184;2022-12-16T10:12:20;100.15;;;46.50;;
46607;SDS011;32330;51.936;7.184;2022-12-16T10:15:18;98.28;;;49.22;;
46607;SDS011;32330;51.936;7.184;2022-12-16T10:18:12;103.07;;;45.78;;
46607;SDS011;32330;51.936;7.184;2022-12-16T10:21:05;102.07;;;50.60;;
46607;SDS011;32330;51.936;7.184;2022-12-16T10:23:55;96.40;;;47.47;;
46607;SDS011;32330;51.936;7.184;2022-12-16T10:26:48;103.35;;;47.50;;
46607;SDS011;32330;51.936;7.184;2022-12-16T10:29:37;105.65;;;51.53;;
46607;SDS011;32330;51.936;7.184;2022-12-16T10:32:26;99.18;;;50.15;;
46607;SDS011;32330;51.936;7.184;2022-12-16T10:35:19;115.00;;;49.55;;
46607;SDS011;32330;51.936;7.184;2022-12-16T10:38:05;101.88;;;50.28;;
46607;SDS011;32330;51.936;7.184;2022-12-16T10:40:58;95.88;;;47.40;;
46607;SDS011;32330;51.936;7.184;2022-12-16T10:43:45;100.30;;;45.97;;
46607;SDS011;32330;51.936;7.184;2022-12-16T10:46:32;112.55;;;48.15;;
46607;SDS011;32330;51.936;7.184;2022-12-16T10:49:18;100.80;;;46.33;;
46607;SDS011;32330;51.936;7.184;2022-12-16T10:52:04;102.60;;;48.25;;
46607;SDS011;32330;51.936;7.184;2022-12-16T10:54:52;95.35;;;46.45;;
46607;SDS011;32330;51.936;7.184;2022-12-16T10:57:50;100.60;;;49.38;;
46607;SDS011;32330;51.936;7.184;2022-12-16T11:00:42;100.75;;;45.30;;
46607;SDS011;32330;51.936;7.184;2022-12-16T11:03:29;98.72;;;47.90;;
46607;SDS011;32330;51.936;7.184;2022-12-16T11:06:15;109.78;;;48.22;;
46607;SDS011;32330;51.936;7.184;2022-12-16T11:09:12;98.63;;;45.30;;
46607;SDS011;32330;51.936;7.184;2022-12-16T11:12:12;109.03;;;53.47;;
46607;SDS011;32330;51.936;7.184;2022-12-16T11:14:59;102.45;;;49.33;;
46607;SDS011;32330;51.936;7.184;2022-12-16T11:17:49;106.95;;;50.08;;
46607;SDS011;32330;51.936;7.184;2022-12-16T11:23:46;96.78;;;45.60;;
46607;SDS011;32330;51.936;7.184;2022-12-16T11:26:51;88.50;;;41.78;;
46607;SDS011;32330;51.936;7.184;2022-12-16T11:29:47;85.88;;;43.70;;
46607;SDS011;32330;51.936;7.184;2022-12-16T11:32:44;95.63;;;43.33;;
46607;SDS011;32330;51.936;7.184;2022-12-16T11:35:32;96.53;;;46.15;;
46607;SDS011;32330;51.936;7.184;2022-12-16T11:38:20;83.50;;;41.53;;
46607;SDS011;32330;51.936;7.184;2022-12-16T11:41:09;97.57;;;47.10;;
46607;SDS011;32330;51.936;7.184;2022-12-16T11:44:01;102.47;;;49.15;;
46607;SDS011;32330;51.936;7.184;2022-12-16T11:46:46;104.47;;;48.47;;
46607;SDS011;32330;51.936;7.184;2022-12-16T11:49:35;92.82;;;47.28;;
46607;SDS011;32330;51.936;7.184;2022-12-16T11:52:20;97.85;;;48.47;;
46607;SDS011;32330;51.936;7.184;2022-12-16T11:55:15;92.30;;;47.65;;
46607;SDS011;32330;51.936;7.184;2022-12-16T11:58:04;94.93;;;45.53;;
46607;SDS011;32330;51.936;7.184;2022-12-16T12:00:57;104.50;;;48.80;;
46607;SDS011;32330;51.936;7.184;2022-12-16T12:03:46;101.47;;;46.60;;
46607;SDS011;32330;51.936;7.184;2022-12-16T12:06:44;89.82;;;44.97;;
46607;SDS011;32330;51.936;7.184;2022-12-16T12:09:44;89.30;;;47.30;;
46607;SDS011;32330;51.936;7.184;2022-12-16T12:12:37;92.97;;;48.90;;
46607;SDS011;32330;51.936;7.184;2022-12-16T12:15:27;95.18;;;47.15;;
46607;SDS011;32330;51.936;7.184;2022-12-16T12:18:22;88.95;;;46.60;;
46607;SDS011;32330;51.936;7.184;2022-12-16T12:24:04;86.55;;;47.13;;
46607;SDS011;32330;51.936;7.184;2022-12-16T12:27:03;92.93;;;49.67;;
46607;SDS011;32330;51.936;7.184;2022-12-16T12:29:55;87.20;;;47.50;;
46607;SDS011;32330;51.936;7.184;2022-12-16T12:32:48;94.32;;;49.97;;
46607;SDS011;32330;51.936;7.184;2022-12-16T12:35:45;93.45;;;49.38;;
46607;SDS011;32330;51.936;7.184;2022-12-16T12:38:43;85.78;;;48.05;;
46607;SDS011;32330;51.936;7.184;2022-12-16T12:41:44;85.30;;;46.55;;
46607;SDS011;32330;51.936;7.184;2022-12-16T12:44:42;89.85;;;47.47;;
46607;SDS011;32330;51.936;7.184;2022-12-16T12:47:39;87.55;;;47.28;;
46607;SDS011;32330;51.936;7.184;2022-12-16T12:50:28;87.07;;;46.72;;
46607;SDS011;32330;51.936;7.184;2022-12-16T12:53:21;97.65;;;49.88;;
46607;SDS011;32330;51.936;7.184;2022-12-16T12:56:14;83.80;;;49.55;;
46607;SDS011;32330;51.936;7.184;2022-12-16T12:59:12;89.05;;;48.20;;
46607;SDS011;32330;51.936;7.184;2022-12-16T13:02:00;86.22;;;48.25;;
46607;SDS011;32330;51.936;7.184;2022-12-16T13:04:48;89.88;;;48.50;;
46607;SDS011;32330;51.936;7.184;2022-12-16T13:07:34;86.40;;;46.65;;
46607;SDS011;32330;51.936;7.184;2022-12-16T13:10:32;91.65;;;47.75;;
46607;SDS011;32330;51.936;7.184;2022-12-16T13:19:40;83.50;;;48.97;;
46607;SDS011;32330;51.936;7.184;2022-12-16T13:22:35;82.03;;;47.38;;
46607;SDS011;32330;51.936;7.184;2022-12-16T13:25:30;83.28;;;46.60;;
46607;SDS011;32330;51.936;7.184;2022-12-16T13:28:21;82.80;;;48.10;;
46607;SDS011;32330;51.936;7.184;2022-12-16T13:31:07;80.80;;;46.72;;
46607;SDS011;32330;51.936;7.184;2022-12-16T13:33:54;87.43;;;48.92;;
46607;SDS011;32330;51.936;7.184;2022-12-16T13:36:51;91.93;;;49.80;;
46607;SDS011;32330;51.936;7.184;2022-12-16T13:39:37;85.80;;;50.55;;
46607;SDS011;32330;51.936;7.184;2022-12-16T13:45:33;84.85;;;48.78;;
46607;SDS011;32330;51.936;7.184;2022-12-16T13:48:30;90.85;;;49.13;;
46607;SDS011;32330;51.936;7.184;2022-12-16T13:54:44;82.32;;;47.80;;
46607;SDS011;32330;51.936;7.184;2022-12-16T13:57:35;83.20;;;45.90;;
46607;SDS011;32330;51.936;7.184;2022-12-16T14:00:24;76.15;;;44.90;;
46607;SDS011;32330;51.936;7.184;2022-12-16T14:03:10;82.43;;;48.17;;
46607;SDS011;32330;51.936;7.184;2022-12-16T14:06:14;84.90;;;46.88;;
46607;SDS011;32330;51.936;7.184;2022-12-16T14:09:03;73.18;;;44.72;;
46607;SDS011;32330;51.936;7.184;2022-12-16T14:11:48;81.32;;;45.60;;
46607;SDS011;32330;51.936;7.184;2022-12-16T14:14:37;82.35;;;43.88;;
46607;SDS011;32330;51.936;7.184;2022-12-16T14:17:26;77.50;;;44.58;;
46607;SDS011;32330;51.936;7.184;2022-12-16T14:20:18;71.93;;;43.30;;
46607;SDS011;32330;51.936;7.184;2022-12-16T14:23:10;67.35;;;41.80;;
46607;SDS011;32330;51.936;7.184;2022-12-16T14:26:08;78.90;;;44.03;;
46607;SDS011;32330;51.936;7.184;2022-12-16T14:28:54;70.57;;;41.30;;
46607;SDS011;32330;51.936;7.184;2022-12-16T14:31:40;78.18;;;43.92;;
46607;SDS011;32330;51.936;7.184;2022-12-16T14:34:26;74.60;;;42.17;;
46607;SDS011;32330;51.936;7.184;2022-12-16T14:37:13;71.00;;;40.28;;
46607;SDS011;32330;51.936;7.184;2022-12-16T14:39:59;63.75;;;38.67;;
46607;SDS011;32330;51.936;7.184;2022-12-16T14:42:45;71.03;;;40.85;;
46607;SDS011;32330;51.936;7.184;2022-12-16T14:45:32;74.22;;;41.25;;
46607;SDS011;32330;51.936;7.184;2022-12-16T14:48:20;70.88;;;40.50;;
46607;SDS011;32330;51.936;7.184;2022-12-16T14:51:14;69.80;;;38.10;;
46607;SDS011;32330;51.936;7.184;2022-12-16T14:54:22;65.90;;;41.03;;
46607;SDS011;32330;51.936;7.184;2022-12-16T14:57:10;68.28;;;38.22;;
46607;SDS011;32330;51.936;7.184;2022-12-16T15:00:03;69.43;;;41.75;;
46607;SDS011;32330;51.936;7.184;2022-12-16T15:02:55;70.30;;;39.15;;
46607;SDS011;32330;51.936;7.184;2022-12-16T15:05:41;70.32;;;39.80;;
46607;SDS011;32330;51.936;7.184;2022-12-16T15:08:27;70.50;;;39.90;;
46607;SDS011;32330;51.936;7.184;2022-12-16T15:11:17;74.15;;;39.70;;
46607;SDS011;32330;51.936;7.184;2022-12-16T15:14:03;73.47;;;43.78;;
46607;SDS011;32330;51.936;7.184;2022-12-16T15:16:51;64.93;;;39.75;;
46607;SDS011;32330;51.936;7.184;2022-12-16T15:19:37;76.28;;;42.97;;
46607;SDS011;32330;51.936;7.184;2022-12-16T15:22:25;70.50;;;38.47;;
46607;SDS011;32330;51.936;7.184;2022-12-16T15:25:16;76.07;;;40.03;;
46607;SDS011;32330;51.936;7.184;2022-12-16T15:28:03;77.35;;;44.47;;
46607;SDS011;32330;51.936;7.184;2022-12-16T15:30:48;73.22;;;43.55;;
46607;SDS011;32330;51.936;7.184;2022-12-16T15:33:34;79.10;;;43.80;;
46607;SDS011;32330;51.936;7.184;2022-12-16T15:36:24;72.15;;;40.38;;
46607;SDS011;32330;51.936;7.184;2022-12-16T15:39:16;66.45;;;40.60;;
46607;SDS011;32330;51.936;7.184;2022-12-16T15:42:03;75.15;;;41.42;;
46607;SDS011;32330;51.936;7.184;2022-12-16T15:44:48;73.75;;;40.97;;
46607;SDS011;32330;51.936;7.184;2022-12-16T15:47:35;73.85;;;41.38;;
46607;SDS011;32330;51.936;7.184;2022-12-16T15:50:23;71.10;;;39.83;;
46607;SDS011;32330;51.936;7.184;2022-12-16T15:53:24;74.68;;;42.00;;
46607;SDS011;32330;51.936;7.184;2022-12-16T15:56:15;72.75;;;44.13;;
46607;SDS011;32330;51.936;7.184;2022-12-16T15:59:14;75.20;;;41.88;;
46607;SDS011;32330;51.936;7.184;2022-12-16T16:02:06;76.72;;;44.47;;
46607;SDS011;32330;51.936;7.184;2022-12-16T16:05:00;80.80;;;44.67;;
46607;SDS011;32330;51.936;7.184;2022-12-16T16:07:46;78.82;;;44.30;;
46607;SDS011;32330;51.936;7.184;2022-12-16T16:10:30;81.20;;;43.97;;
46607;SDS011;32330;51.936;7.184;2022-12-16T16:13:15;74.70;;;42.92;;
46607;SDS011;32330;51.936;7.184;2022-12-16T16:16:00;79.70;;;44.55;;
46607;SDS011;32330;51.936;7.184;2022-12-16T16:18:46;78.65;;;44.08;;
46607;SDS011;32330;51.936;7.184;2022-12-16T16:21:30;84.20;;;48.65;;
46607;SDS011;32330;51.936;7.184;2022-12-16T16:24:16;75.22;;;40.25;;
46607;SDS011;32330;51.936;7.184;2022-12-16T16:27:01;76.20;;;39.95;;
46607;SDS011;32330;51.936;7.184;2022-12-16T16:29:47;73.78;;;42.47;;
46607;SDS011;32330;51.936;7.184;2022-12-16T16:32:31;84.88;;;48.13;;
46607;SDS011;32330;51.936;7.184;2022-12-16T16:35:15;119.22;;;58.83;;
46607;SDS011;32330;51.936;7.184;2022-12-16T16:38:00;89.68;;;48.67;;
46607;SDS011;32330;51.936;7.184;2022-12-16T16:40:46;80.10;;;44.42;;
46607;SDS011;32330;51.936;7.184;2022-12-16T16:43:30;73.32;;;42.40;;
46607;SDS011;32330;51.936;7.184;2022-12-16T16:46:21;87.10;;;44.95;;
46607;SDS011;32330;51.936;7.184;2022-12-16T16:49:17;81.50;;;45.55;;
46607;SDS011;32330;51.936;7.184;2022-12-16T16:52:19;85.22;;;46.85;;
46607;SDS011;32330;51.936;7.184;2022-12-16T16:55:13;80.45;;;45.60;;
46607;SDS011;32330;51.936;7.184;2022-12-16T16:58:00;83.07;;;46.67;;
46607;SDS011;32330;51.936;7.184;2022-12-16T17:00:49;83.78;;;50.22;;
46607;SDS011;32330;51.936;7.184;2022-12-16T17:03:34;81.20;;;46.15;;
46607;SDS011;32330;51.936;7.184;2022-12-16T17:06:18;68.05;;;42.00;;
46607;SDS011;32330;51.936;7.184;2022-12-16T17:09:02;77.72;;;45.33;;
46607;SDS011;32330;51.936;7.184;2022-12-16T17:11:47;82.10;;;51.33;;
46607;SDS011;32330;51.936;7.184;2022-12-16T17:14:33;71.75;;;45.47;;
46607;SDS011;32330;51.936;7.184;2022-12-16T17:17:17;80.75;;;49.95;;
46607;SDS011;32330;51.936;7.184;2022-12-16T17:20:04;78.15;;;46.40;;
46607;SDS011;32330;51.936;7.184;2022-12-16T17:22:49;66.55;;;38.80;;
46607;SDS011;32330;51.936;7.184;2022-12-16T17:25:34;65.63;;;38.08;;
46607;SDS011;32330;51.936;7.184;2022-12-16T17:28:18;67.93;;;39.72;;
46607;SDS011;32330;51.936;7.184;2022-12-16T17:31:04;71.93;;;42.03;;
46607;SDS011;32330;51.936;7.184;2022-12-16T17:33:50;69.03;;;40.72;;
46607;SDS011;32330;51.936;7.184;2022-12-16T17:36:35;85.15;;;47.03;;
46607;SDS011;32330;51.936;7.184;2022-12-16T17:39:19;74.03;;;46.08;;
46607;SDS011;32330;51.936;7.184;2022-12-16T17:42:04;74.20;;;45.10;;
46607;SDS011;32330;51.936;7.184;2022-12-16T17:44:49;72.25;;;44.28;;
46607;SDS011;32330;51.936;7.184;2022-12-16T17:47:34;77.43;;;44.53;;
46607;SDS011;32330;51.936;7.184;2022-12-16T17:50:19;74.28;;;41.20;;
46607;SDS011;32330;51.936;7.184;2022-12-16T17:53:03;81.20;;;44.70;;
46607;SDS011;32330;51.936;7.184;2022-12-16T17:55:53;77.05;;;41.40;;
46607;SDS011;32330;51.936;7.184;2022-12-16T17:58:49;74.13;;;43.10;;
46607;SDS011;32330;51.936;7.184;2022-12-16T18:01:34;79.80;;;49.03;;
46607;SDS011;32330;51.936;7.184;2022-12-16T18:04:20;87.45;;;51.88;;
46607;SDS011;32330;51.936;7.184;2022-12-16T18:07:04;71.40;;;43.20;;
46607;SDS011;32330;51.936;7.184;2022-12-16T18:09:49;75.35;;;44.13;;
46607;SDS011;32330;51.936;7.184;2022-12-16T18:12:33;78.32;;;47.70;;
46607;SDS011;32330;51.936;7.184;2022-12-16T18:15:17;91.43;;;54.22;;
46607;SDS011;32330;51.936;7.184;2022-12-16T18:18:02;101.88;;;62.33;;
46607;SDS011;32330;51.936;7.184;2022-12-16T18:20:48;90.72;;;55.55;;
46607;SDS011;32330;51.936;7.184;2022-12-16T18:23:32;94.60;;;53.97;;
46607;SDS011;32330;51.936;7.184;2022-12-16T18:26:17;91.32;;;52.83;;
46607;SDS011;32330;51.936;7.184;2022-12-16T18:29:01;87.72;;;49.30;;
46607;SDS011;32330;51.936;7.184;2022-12-16T18:31:46;88.43;;;51.25;;
46607;SDS011;32330;51.936;7.184;2022-12-16T18:34:31;84.85;;;49.95;;
46607;SDS011;32330;51.936;7.184;2022-12-16T18:37:17;87.75;;;52.50;;
46607;SDS011;32330;51.936;7.184;2022-12-16T18:40:16;84.85;;;50.42;;
46607;SDS011;32330;51.936;7.184;2022-12-16T18:43:01;90.32;;;54.78;;
46607;SDS011;32330;51.936;7.184;2022-12-16T18:45:49;87.25;;;51.25;;
46607;SDS011;32330;51.936;7.184;2022-12-16T18:48:34;82.00;;;51.33;;
46607;SDS011;32330;51.936;7.184;2022-12-16T18:51:19;85.95;;;52.78;;
46607;SDS011;32330;51.936;7.184;2022-12-16T18:54:04;89.25;;;54.45;;
46607;SDS011;32330;51.936;7.184;2022-12-16T18:57:07;89.57;;;52.63;;
46607;SDS011;32330;51.936;7.184;2022-12-16T18:59:51;104.07;;;59.53;;
46607;SDS011;32330;51.936;7.184;2022-12-16T19:02:36;94.95;;;55.50;;
46607;SDS011;32330;51.936;7.184;2022-12-16T19:05:20;91.18;;;54.30;;
46607;SDS011;32330;51.936;7.184;2022-12-16T19:08:05;94.05;;;56.60;;
46607;SDS011;32330;51.936;7.184;2022-12-16T19:10:55;94.10;;;55.95;;
46607;SDS011;32330;51.936;7.184;2022-12-16T19:13:39;97.30;;;56.17;;
46607;SDS011;32330;51.936;7.184;2022-12-16T19:16:24;99.70;;;56.45;;
46607;SDS011;32330;51.936;7.184;2022-12-16T19:19:08;115.30;;;59.22;;
46607;SDS011;32330;51.936;7.184;2022-12-16T19:21:53;108.22;;;57.80;;
46607;SDS011;32330;51.936;7.184;2022-12-16T19:24:37;115.60;;;57.00;;
46607;SDS011;32330;51.936;7.184;2022-12-16T19:27:23;153.15;;;49.92;;
46607;SDS011;32330;51.936;7.184;2022-12-16T19:30:08;201.95;;;50.90;;
46607;SDS011;32330;51.936;7.184;2022-12-16T19:32:53;113.18;;;49.53;;
46607;SDS011;32330;51.936;7.184;2022-12-16T19:35:38;104.75;;;50.75;;
46607;SDS011;32330;51.936;7.184;2022-12-16T19:38:22;94.72;;;47.83;;
46607;SDS011;32330;51.936;7.184;2022-12-16T19:41:10;116.07;;;50.10;;
46607;SDS011;32330;51.936;7.184;2022-12-16T19:43:58;161.77;;;51.75;;